X  Fermer Données météorologiques d'aviation de Metar     LKTB Brno-Tuřany Airport
Température
10°C Température
5°C Point de rosée
71% Humidité



Vent
13 KM/H
8 MPH
4 M/S
7 KTS



100°
Est
Conditions actuelles

Clair Clair
Pression 1009.92 (hPa) - 29.82 (inHg)
Visibilité 6.2 (mile) - 10 (km)
Aéroport
Code de l'aéroport LKTB

Emplacement: Brno-Tuřany Airport
Distance: 25 (km)

Metar:
LKTB 202300Z 10007KT CAVOK 10/05 Q1010 NOSIG

Temps: 21-10-2021 01:00 CEST